createdAt,value
2019-04-22T00:01:14.937Z,14.90
2019-04-22T00:03:49.753Z,14.90
2019-04-22T00:06:33.617Z,14.90
2019-04-22T00:09:03.256Z,15.10
2019-04-22T00:11:36.787Z,15.10
2019-04-22T00:14:00.905Z,15.20
2019-04-22T00:16:47.271Z,15.20
2019-04-22T00:19:17.126Z,15.10
2019-04-22T00:21:38.411Z,15.00
2019-04-22T00:24:12.135Z,14.90
2019-04-22T00:26:45.637Z,14.70
2019-04-22T00:29:26.907Z,14.70
2019-04-22T00:32:01.803Z,14.60
2019-04-22T00:34:33.925Z,14.80
2019-04-22T00:37:08.009Z,14.90
2019-04-22T00:39:51.298Z,14.90
2019-04-22T00:42:08.340Z,14.80
2019-04-22T00:44:40.312Z,14.70
2019-04-22T00:47:07.389Z,14.70
2019-04-22T00:52:09.784Z,14.60
2019-04-22T00:54:51.302Z,14.60
2019-04-22T00:57:10.494Z,14.50
2019-04-22T00:59:45.808Z,14.50
2019-04-22T01:02:18.532Z,14.30
2019-04-22T01:04:47.510Z,14.30
2019-04-22T01:07:11.620Z,14.20
2019-04-22T01:09:56.202Z,14.20
2019-04-22T01:12:19.699Z,14.20
2019-04-22T01:14:47.287Z,14.10
2019-04-22T01:17:14.418Z,14.00
2019-04-22T01:22:17.744Z,13.90
2019-04-22T01:24:44.580Z,13.80
2019-04-22T01:27:11.586Z,13.60
2019-04-22T01:29:44.084Z,13.50
2019-04-22T01:32:00.366Z,13.50
2019-04-22T01:34:45.693Z,13.40
2019-04-22T01:37:22.392Z,13.30
2019-04-22T01:39:57.047Z,13.30
2019-04-22T01:42:30.504Z,13.20
2019-04-22T01:45:03.570Z,13.20
2019-04-22T01:47:31.085Z,13.20
2019-04-22T01:50:04.695Z,13.30
2019-04-22T01:52:31.376Z,13.20
2019-04-22T01:55:04.531Z,13.10
2019-04-22T01:57:31.223Z,13.10
2019-04-22T01:59:59.029Z,13.10
2019-04-22T02:02:36.552Z,13.10
2019-04-22T02:05:04.968Z,13.00
2019-04-22T02:07:34.351Z,13.00
2019-04-22T02:10:07.418Z,13.00
2019-04-22T02:12:43.319Z,13.00
2019-04-22T02:15:05.907Z,13.10
2019-04-22T02:17:50.286Z,13.10
2019-04-22T02:20:28.185Z,13.10
2019-04-22T02:23:36.965Z,13.10
2019-04-22T02:25:51.607Z,13.10
2019-04-22T02:28:26.048Z,13.10
2019-04-22T02:31:16.173Z,13.10
2019-04-22T02:36:09.434Z,13.00
2019-04-22T02:38:46.647Z,13.00
2019-04-22T02:43:56.980Z,12.90
2019-04-22T02:46:15.670Z,12.90
2019-04-22T02:48:50.332Z,12.90
2019-04-22T02:51:02.173Z,12.80
2019-04-22T02:54:11.932Z,12.70
2019-04-22T02:56:12.142Z,12.70
2019-04-22T02:58:52.315Z,12.70
2019-04-22T03:01:13.441Z,12.70
2019-04-22T03:03:50.550Z,12.70
2019-04-22T03:08:39.646Z,12.80
2019-04-22T03:11:12.429Z,12.80
2019-04-22T03:16:26.647Z,12.80
2019-04-22T03:18:53.383Z,12.80
2019-04-22T03:28:49.730Z,12.70
2019-04-22T03:39:37.767Z,12.50
2019-04-22T03:42:05.183Z,12.50
2019-04-22T03:49:37.183Z,12.50
2019-04-22T04:02:02.542Z,12.40
2019-04-22T04:04:35.428Z,12.40
2019-04-22T04:07:14.919Z,12.40
2019-04-22T04:12:03.770Z,12.40
2019-04-22T04:14:46.295Z,12.40
2019-04-22T04:19:46.014Z,12.40
2019-04-22T04:22:07.995Z,12.40
2019-04-22T04:27:22.293Z,12.40
2019-04-22T04:30:01.853Z,12.40
2019-04-22T04:32:32.095Z,12.50
2019-04-22T04:35:07.665Z,12.50
2019-04-22T04:37:33.169Z,12.50
2019-04-22T04:40:21.386Z,12.60
2019-04-22T04:42:25.466Z,12.60
2019-04-22T04:44:59.391Z,12.60
2019-04-22T04:47:33.549Z,12.70
2019-04-22T04:54:56.986Z,12.80
2019-04-22T04:57:28.376Z,12.90
2019-04-22T05:00:21.645Z,12.90
2019-04-22T05:02:19.767Z,13.00
2019-04-22T05:09:54.866Z,13.20
2019-04-22T05:14:50.474Z,13.40
2019-04-22T05:19:50.270Z,13.60
2019-04-22T05:22:24.720Z,13.70
2019-04-22T05:24:53.820Z,13.70
2019-04-22T05:27:32.661Z,13.90
2019-04-22T05:30:10.043Z,13.90
2019-04-22T05:32:25.326Z,14.00
2019-04-22T05:34:55.744Z,14.00
2019-04-22T05:37:28.305Z,14.20
2019-04-22T05:39:58.696Z,14.20
2019-04-22T05:42:34.149Z,14.30
2019-04-22T05:44:55.447Z,14.40
2019-04-22T05:47:26.006Z,14.50
2019-04-22T05:50:00.045Z,14.60
2019-04-22T05:52:29.968Z,14.60
2019-04-22T05:55:06.611Z,14.70
2019-04-22T05:57:31.639Z,14.70
2019-04-22T06:00:01.588Z,14.70
2019-04-22T06:02:44.596Z,14.70
2019-04-22T06:05:04.824Z,14.60
2019-04-22T06:07:31.349Z,14.70
2019-04-22T06:10:12.912Z,14.70
2019-04-22T06:12:34.017Z,14.80
2019-04-22T06:15:25.446Z,14.80
2019-04-22T06:17:52.667Z,14.90
2019-04-22T06:20:15.339Z,15.00
2019-04-22T06:22:47.934Z,15.00
2019-04-22T06:25:20.498Z,15.00
2019-04-22T06:27:48.300Z,15.10
2019-04-22T06:30:26.524Z,15.20
2019-04-22T06:35:30.011Z,15.30
2019-04-22T06:38:18.897Z,15.30
2019-04-22T06:40:29.203Z,15.30
2019-04-22T06:43:01.103Z,15.40
2019-04-22T06:45:23.410Z,15.40
2019-04-22T06:50:36.728Z,15.40
2019-04-22T06:53:04.475Z,15.50
2019-04-22T06:55:35.652Z,15.60
2019-04-22T06:58:07.633Z,15.70
2019-04-22T07:00:38.119Z,15.80
2019-04-22T07:03:39.875Z,15.80
2019-04-22T07:05:41.330Z,15.90
2019-04-22T07:08:16.401Z,16.00
2019-04-22T07:10:45.107Z,15.90
2019-04-22T07:13:11.619Z,16.00
2019-04-22T07:20:44.506Z,16.40
2019-04-22T07:23:21.371Z,16.40
2019-04-22T07:28:17.608Z,16.60
2019-04-22T07:30:47.226Z,16.70
2019-04-22T07:33:27.867Z,16.80
2019-04-22T07:36:04.474Z,17.00
2019-04-22T07:38:25.575Z,17.00
2019-04-22T07:40:50.160Z,17.20
2019-04-22T07:43:27.994Z,17.20
2019-04-22T07:45:49.360Z,17.30
2019-04-22T07:48:33.212Z,17.40
2019-04-22T07:50:56.053Z,17.40
2019-04-22T07:53:23.019Z,17.60
2019-04-22T07:55:52.222Z,17.50
2019-04-22T07:58:25.729Z,17.80
2019-04-22T08:03:37.552Z,17.90
2019-04-22T08:08:29.057Z,17.80
2019-04-22T08:11:18.907Z,18.00
2019-04-22T08:13:34.943Z,17.90
2019-04-22T08:16:04.876Z,18.10
2019-04-22T08:18:39.368Z,18.30
2019-04-22T08:21:07.541Z,18.40
2019-04-22T08:26:14.279Z,18.40
2019-04-22T08:28:47.822Z,18.50
2019-04-22T08:31:14.911Z,18.70
2019-04-22T08:33:41.204Z,18.90
2019-04-22T08:36:19.802Z,19.10
2019-04-22T08:39:04.461Z,19.10
2019-04-22T08:41:28.369Z,19.10
2019-04-22T08:43:57.832Z,19.30
2019-04-22T08:46:27.438Z,19.50
2019-04-22T08:48:57.773Z,19.60
2019-04-22T08:51:28.170Z,19.60
2019-04-22T08:53:59.777Z,19.80
2019-04-22T08:59:07.042Z,20.10
2019-04-22T09:01:29.649Z,20.30
2019-04-22T09:04:04.023Z,20.30
2019-04-22T09:14:26.067Z,20.70
2019-04-22T09:16:41.413Z,20.80
2019-04-22T09:19:10.756Z,20.90
2019-04-22T09:21:41.966Z,21.00
2019-04-22T09:24:10.628Z,21.10
2019-04-22T09:29:24.935Z,21.40
2019-04-22T09:32:00.398Z,21.50
2019-04-22T09:34:23.510Z,21.40
2019-04-22T09:37:04.440Z,21.50
2019-04-22T09:39:30.287Z,21.50
2019-04-22T09:44:36.174Z,21.80
2019-04-22T09:46:59.681Z,22.10
2019-04-22T09:52:11.091Z,22.20
2019-04-22T09:54:51.035Z,22.20
2019-04-22T09:57:09.495Z,22.30
2019-04-22T09:59:43.787Z,22.30
2019-04-22T10:04:46.518Z,22.20
2019-04-22T10:07:17.569Z,22.50
2019-04-22T10:10:03.405Z,22.50
2019-04-22T10:12:19.239Z,22.60
2019-04-22T10:14:45.681Z,22.70
2019-04-22T10:17:12.364Z,22.90
2019-04-22T10:19:46.797Z,23.00
2019-04-22T10:22:29.048Z,23.10
2019-04-22T10:24:53.634Z,23.00
2019-04-22T10:27:21.055Z,23.00
2019-04-22T10:29:54.184Z,23.00
2019-04-22T10:32:17.576Z,23.10
2019-04-22T10:34:43.637Z,23.20
2019-04-22T10:37:11.254Z,23.30
2019-04-22T10:39:50.596Z,23.40
2019-04-22T10:42:13.198Z,23.50
2019-04-22T10:44:44.698Z,23.50
2019-04-22T10:47:13.966Z,23.70
2019-04-22T10:49:44.481Z,23.80
2019-04-22T10:52:13.453Z,23.90
2019-04-22T10:54:45.463Z,23.90
2019-04-22T10:57:15.889Z,23.80
2019-04-22T10:59:45.091Z,23.90
2019-04-22T11:02:14.314Z,24.00
2019-04-22T11:07:18.907Z,24.10
2019-04-22T11:09:57.126Z,24.10
2019-04-22T11:12:22.815Z,23.90
2019-04-22T11:14:49.790Z,23.90
2019-04-22T11:17:19.586Z,23.90
2019-04-22T11:19:49.937Z,24.10
2019-04-22T11:22:25.441Z,24.30
2019-04-22T11:24:50.829Z,24.30
2019-04-22T11:27:21.196Z,24.30
2019-04-22T11:29:51.228Z,24.30
2019-04-22T11:32:20.276Z,24.30
2019-04-22T11:34:51.116Z,24.50
2019-04-22T11:37:20.759Z,24.60
2019-04-22T11:40:04.644Z,24.70
2019-04-22T11:42:22.244Z,24.70
2019-04-22T11:44:53.093Z,24.90
2019-04-22T11:47:23.311Z,24.80
2019-04-22T11:49:54.477Z,24.80
2019-04-22T11:52:24.661Z,24.80
2019-04-22T11:54:56.867Z,24.80
2019-04-22T11:57:25.929Z,24.80
2019-04-22T11:59:56.507Z,25.00
2019-04-22T12:02:29.178Z,25.10
2019-04-22T12:04:58.480Z,25.00
2019-04-22T12:07:30.013Z,25.00
2019-04-22T12:09:59.590Z,24.80
2019-04-22T12:12:29.970Z,24.70
2019-04-22T12:14:58.983Z,24.90
2019-04-22T12:17:29.521Z,25.00
2019-04-22T12:20:00.210Z,25.10
2019-04-22T12:22:31.272Z,25.20
2019-04-22T12:25:00.592Z,25.30
2019-04-22T12:27:36.907Z,25.30
2019-04-22T12:30:06.896Z,25.30
2019-04-22T12:32:35.960Z,25.30
2019-04-22T12:35:05.477Z,25.20
2019-04-22T12:37:43.950Z,25.00
2019-04-22T12:40:06.496Z,25.10
2019-04-22T12:42:35.478Z,25.30
2019-04-22T12:45:06.342Z,25.40
2019-04-22T12:47:37.825Z,25.60
2019-04-22T12:50:16.507Z,25.70
2019-04-22T12:52:48.079Z,25.50
2019-04-22T12:55:12.027Z,25.60
2019-04-22T12:57:41.020Z,25.70
2019-04-22T13:02:43.216Z,25.60
2019-04-22T13:05:12.470Z,25.70
2019-04-22T13:07:41.835Z,25.70
2019-04-22T13:10:13.604Z,26.00
2019-04-22T13:12:42.934Z,25.80
2019-04-22T13:15:13.900Z,25.60
2019-04-22T13:17:46.124Z,25.70
2019-04-22T13:20:18.277Z,25.90
2019-04-22T13:22:46.007Z,26.00
2019-04-22T13:25:15.627Z,26.20
2019-04-22T13:27:44.932Z,25.90
2019-04-22T13:30:20.914Z,25.90
2019-04-22T13:32:49.978Z,26.20
2019-04-22T13:35:22.226Z,26.30
2019-04-22T13:37:52.943Z,26.30
2019-04-22T13:40:23.355Z,26.40
2019-04-22T13:42:53.550Z,26.20
2019-04-22T13:45:23.135Z,26.20
2019-04-22T13:48:10.998Z,26.10
2019-04-22T13:50:59.487Z,26.40
2019-04-22T13:53:40.412Z,26.50
2019-04-22T13:55:57.943Z,26.50
2019-04-22T13:58:14.507Z,26.60
2019-04-22T14:00:31.139Z,26.30
2019-04-22T14:03:18.368Z,26.40
2019-04-22T14:05:48.836Z,26.70
2019-04-22T14:08:18.500Z,26.70
2019-04-22T14:10:48.562Z,26.60
2019-04-22T14:13:17.374Z,26.30
2019-04-22T14:15:48.450Z,26.30
2019-04-22T14:18:18.978Z,26.30
2019-04-22T14:20:49.227Z,26.60
2019-04-22T14:23:18.174Z,26.40
2019-04-22T14:25:48.426Z,26.40
2019-04-22T14:28:19.851Z,26.60
2019-04-22T14:30:48.582Z,26.50
2019-04-22T14:33:18.273Z,26.70
2019-04-22T14:35:47.995Z,26.60
2019-04-22T14:38:18.251Z,26.70
2019-04-22T14:40:48.231Z,26.60
2019-04-22T14:43:51.495Z,26.60
2019-04-22T14:46:17.816Z,26.50
2019-04-22T14:48:46.439Z,26.40
2019-04-22T14:51:07.714Z,26.10
2019-04-22T14:53:43.481Z,26.40
2019-04-22T14:55:50.836Z,26.60
2019-04-22T14:58:19.764Z,26.40
2019-04-22T15:00:49.314Z,26.50
2019-04-22T15:03:19.733Z,26.70
2019-04-22T15:05:50.300Z,26.80
2019-04-22T15:08:19.492Z,26.70
2019-04-22T15:10:49.627Z,26.60
2019-04-22T15:13:18.554Z,26.50
2019-04-22T15:16:13.921Z,26.60
2019-04-22T15:18:55.864Z,26.70
2019-04-22T15:21:27.040Z,26.80
2019-04-22T15:23:56.372Z,26.70
2019-04-22T15:26:26.450Z,26.70
2019-04-22T15:28:55.520Z,26.40
2019-04-22T15:31:24.583Z,25.90
2019-04-22T15:33:54.360Z,26.00
2019-04-22T15:36:24.110Z,26.20
2019-04-22T15:38:53.458Z,26.40
2019-04-22T15:41:22.967Z,26.60
2019-04-22T15:43:52.099Z,26.90
2019-04-22T15:46:21.358Z,26.80
2019-04-22T15:48:51.746Z,26.90
2019-04-22T15:51:22.310Z,26.80
2019-04-22T15:53:51.961Z,26.70
2019-04-22T15:56:21.114Z,27.00
2019-04-22T15:58:51.335Z,27.20
2019-04-22T16:01:27.502Z,27.00
2019-04-22T16:03:52.363Z,27.00
2019-04-22T16:06:22.031Z,26.60
2019-04-22T16:08:52.081Z,26.30
2019-04-22T16:11:22.261Z,26.30
2019-04-22T16:13:52.411Z,26.00
2019-04-22T16:16:22.898Z,26.30
2019-04-22T16:18:52.208Z,26.50
2019-04-22T16:21:36.416Z,26.80
2019-04-22T16:24:09.080Z,27.00
2019-04-22T16:26:53.963Z,27.30
2019-04-22T16:29:23.322Z,27.10
2019-04-22T16:31:53.441Z,27.30
2019-04-22T16:34:23.828Z,27.20
2019-04-22T16:36:52.927Z,27.40
2019-04-22T16:39:22.816Z,27.20
2019-04-22T16:41:52.832Z,27.10
2019-04-22T16:44:22.693Z,27.10
2019-04-22T16:46:51.959Z,27.00
2019-04-22T16:49:21.480Z,26.90
2019-04-22T16:51:51.924Z,26.60
2019-04-22T16:54:22.130Z,26.60
2019-04-22T16:56:52.242Z,26.40
2019-04-22T16:59:22.590Z,26.40
2019-04-22T17:02:06.308Z,26.10
2019-04-22T17:04:48.585Z,25.90
2019-04-22T17:07:20.352Z,26.20
2019-04-22T17:09:50.010Z,25.90
2019-04-22T17:12:19.573Z,25.70
2019-04-22T17:14:54.783Z,25.50
2019-04-22T17:17:20.227Z,25.40
2019-04-22T17:19:49.507Z,25.50
2019-04-22T17:22:19.595Z,25.70
2019-04-22T17:24:49.923Z,25.90
2019-04-22T17:27:20.146Z,26.10
2019-04-22T17:29:50.467Z,26.20
2019-04-22T17:32:22.728Z,26.40
2019-04-22T17:34:50.109Z,26.60
2019-04-22T17:37:24.629Z,26.60
2019-04-22T17:40:05.667Z,26.30
2019-04-22T17:42:39.470Z,26.20
2019-04-22T17:45:21.910Z,26.30
2019-04-22T17:48:09.701Z,25.90
2019-04-22T17:50:46.288Z,25.60
2019-04-22T17:53:22.617Z,25.90
2019-04-22T17:55:49.499Z,25.60
2019-04-22T17:58:14.829Z,25.60
2019-04-22T18:00:38.210Z,25.20
2019-04-22T18:03:03.097Z,25.00
2019-04-22T18:05:37.338Z,24.60
2019-04-22T18:08:17.026Z,24.60
2019-04-22T18:10:44.083Z,24.50
2019-04-22T18:15:48.455Z,23.90
2019-04-22T18:18:20.227Z,23.70
2019-04-22T18:20:44.869Z,23.50
2019-04-22T18:23:06.526Z,23.30
2019-04-22T18:25:53.757Z,23.10
2019-04-22T18:28:25.192Z,22.80
2019-04-22T18:30:47.785Z,22.70
2019-04-22T18:33:24.202Z,22.50
2019-04-22T18:35:52.792Z,22.40
2019-04-22T18:38:33.359Z,22.20
2019-04-22T18:40:50.629Z,22.10
2019-04-22T18:43:28.893Z,22.10
2019-04-22T18:46:00.298Z,21.90
2019-04-22T18:48:32.062Z,21.80
2019-04-22T18:51:11.858Z,21.80
2019-04-22T18:54:09.891Z,21.70
2019-04-22T18:56:41.891Z,21.60
2019-04-22T18:59:05.065Z,21.50
2019-04-22T19:01:23.872Z,21.40
2019-04-22T19:04:01.409Z,21.30
2019-04-22T19:06:46.319Z,21.10
2019-04-22T19:09:22.143Z,21.00
2019-04-22T19:11:55.667Z,20.90
2019-04-22T19:14:20.053Z,20.90
2019-04-22T19:16:45.569Z,20.80
2019-04-22T19:19:30.126Z,20.80
2019-04-22T19:21:49.735Z,20.60
2019-04-22T19:24:17.404Z,20.50
2019-04-22T19:26:59.289Z,20.40
2019-04-22T19:29:20.386Z,20.40
2019-04-22T19:31:51.201Z,20.40
2019-04-22T19:34:20.866Z,20.30
2019-04-22T19:36:59.334Z,20.20
2019-04-22T19:39:18.262Z,20.10
2019-04-22T19:42:04.416Z,20.00
2019-04-22T19:44:29.141Z,20.00
2019-04-22T19:47:18.620Z,20.00
2019-04-22T19:49:38.344Z,19.80
2019-04-22T19:52:05.416Z,19.80
2019-04-22T19:54:29.053Z,19.80
2019-04-22T19:56:50.971Z,19.70
2019-04-22T19:59:25.334Z,19.60
2019-04-22T20:02:11.461Z,19.60
2019-04-22T20:05:03.794Z,19.40
2019-04-22T20:07:38.511Z,19.40
2019-04-22T20:10:10.501Z,19.30
2019-04-22T20:12:39.798Z,19.20
2019-04-22T20:15:09.972Z,19.20
2019-04-22T20:17:58.294Z,19.10
2019-04-22T20:20:25.912Z,19.10
2019-04-22T20:22:44.908Z,19.10
2019-04-22T20:25:05.565Z,19.00
2019-04-22T20:27:53.358Z,18.80
2019-04-22T20:30:17.316Z,18.70
2019-04-22T20:32:47.381Z,18.60
2019-04-22T20:35:21.000Z,18.60
2019-04-22T20:37:51.068Z,18.50
2019-04-22T20:40:25.380Z,18.40
2019-04-22T20:42:54.402Z,18.30
2019-04-22T20:45:24.770Z,18.30
2019-04-22T20:47:46.490Z,18.30
2019-04-22T20:50:23.811Z,18.20
2019-04-22T20:52:59.290Z,18.00
2019-04-22T20:55:19.175Z,18.00
2019-04-22T20:57:53.638Z,18.00
2019-04-22T21:00:20.117Z,17.90
2019-04-22T21:02:46.964Z,17.80
2019-04-22T21:05:22.146Z,17.70
2019-04-22T21:08:02.942Z,17.70
2019-04-22T21:10:22.506Z,17.60
2019-04-22T21:12:59.066Z,17.50
2019-04-22T21:15:42.498Z,17.40
2019-04-22T21:17:59.746Z,17.30
2019-04-22T21:20:41.426Z,17.20
2019-04-22T21:23:03.779Z,17.20
2019-04-22T21:25:25.287Z,17.10
2019-04-22T21:28:05.002Z,17.20
2019-04-22T21:30:31.858Z,17.20
2019-04-22T21:33:05.517Z,17.20
2019-04-22T21:36:01.634Z,17.20
2019-04-22T21:38:07.952Z,17.10
2019-04-22T21:40:37.661Z,17.10
2019-04-22T21:43:12.179Z,17.00
2019-04-22T21:45:28.079Z,16.90
2019-04-22T21:48:13.814Z,16.80
2019-04-22T21:50:59.897Z,16.80
2019-04-22T21:53:16.493Z,16.80
2019-04-22T21:55:43.714Z,16.70
2019-04-22T21:58:17.966Z,16.60
2019-04-22T22:01:14.078Z,16.70
2019-04-22T22:03:39.630Z,16.60
2019-04-22T22:06:03.672Z,16.50
2019-04-22T22:08:42.454Z,16.50
2019-04-22T22:11:09.540Z,16.40
2019-04-22T22:13:44.400Z,16.20
2019-04-22T22:16:12.822Z,16.20
2019-04-22T22:18:35.029Z,16.20
2019-04-22T22:21:33.418Z,16.20
2019-04-22T22:23:42.441Z,16.10
2019-04-22T22:26:09.473Z,16.10
2019-04-22T22:29:05.379Z,16.20
2019-04-22T22:31:22.278Z,16.10
2019-04-22T22:33:49.683Z,16.00
2019-04-22T22:36:13.696Z,16.00
2019-04-22T22:38:45.798Z,15.90
2019-04-22T22:40:58.240Z,15.80
2019-04-22T22:43:35.240Z,15.80
2019-04-22T22:46:12.008Z,15.80
2019-04-22T22:48:53.602Z,15.80
2019-04-22T22:51:29.940Z,15.80
2019-04-22T22:53:51.212Z,15.70
2019-04-22T22:56:25.303Z,15.70
2019-04-22T22:58:52.433Z,15.60
2019-04-22T23:01:23.355Z,15.60
2019-04-22T23:04:09.241Z,15.50
2019-04-22T23:06:32.829Z,15.40
2019-04-22T23:09:01.928Z,15.30
2019-04-22T23:11:47.806Z,15.40
2019-04-22T23:13:56.934Z,15.30
2019-04-22T23:16:17.649Z,15.30
2019-04-22T23:18:55.456Z,15.20
2019-04-22T23:21:32.637Z,15.20
2019-04-22T23:24:12.636Z,15.20
2019-04-22T23:26:45.663Z,15.10
2019-04-22T23:29:32.658Z,15.10
2019-04-22T23:32:05.541Z,15.00
2019-04-22T23:34:42.963Z,15.00
2019-04-22T23:37:18.867Z,14.90
2019-04-22T23:40:08.164Z,14.90
2019-04-22T23:42:27.292Z,14.90
2019-04-22T23:44:55.890Z,14.80
2019-04-22T23:47:24.288Z,14.80
2019-04-22T23:49:56.105Z,14.70
2019-04-22T23:52:28.694Z,14.70
2019-04-22T23:55:06.864Z,14.60
2019-04-22T23:57:42.127Z,14.60
